AAR1065 RKSS-RKPC
Flight info
| Callsign | AAR1065 |
|---|---|
| Flight time | N/A |
| Altitude | 26000 |
| Route | BULTI2T BULTI Y711 DOTOL DOTOL1M |
| Aircraft | A320/M-SDE3FGHIRWY/LB1 |
Departure
| Time | 2026-05-04 12:32 |
|---|---|
| Airport | Gimpo International Airport (RKSS) |
Arrival
| Time | N/A |
|---|---|
| Airport | Jeju International Airport (RKPC) |
| Time | Latitude | Longitude | Altitude | Speed | Heading |
|---|---|---|---|---|---|
| 2026-05-04 12:05 | 37.55939 | 126.80110 | 67 ft | 0 kts | 45° |
| 2026-05-04 12:20 | 37.55940 | 126.80110 | 67 ft | 0 kts | 45° |
| 2026-05-04 12:21 | 37.55929 | 126.80097 | 59 ft | 2 kts | 46° |
| 2026-05-04 12:21 | 37.55918 | 126.80083 | 64 ft | 2 kts | 46° |
| 2026-05-04 12:22 | 37.55906 | 126.80067 | 62 ft | 2 kts | 46° |
| 2026-05-04 12:22 | 37.55895 | 126.80052 | 60 ft | 2 kts | 47° |
| 2026-05-04 12:22 | 37.55884 | 126.80037 | 64 ft | 2 kts | 50° |
| 2026-05-04 12:22 | 37.55874 | 126.80021 | 63 ft | 2 kts | 58° |
| 2026-05-04 12:23 | 37.55867 | 126.80002 | 57 ft | 2 kts | 104° |
| 2026-05-04 12:23 | 37.55872 | 126.79990 | 64 ft | 1 kts | 138° |
| 2026-05-04 12:23 | 37.55872 | 126.79989 | 64 ft | 0 kts | 137° |
| 2026-05-04 12:24 | 37.55870 | 126.79991 | 64 ft | 0 kts | 137° |
| 2026-05-04 12:24 | 37.55869 | 126.79992 | 57 ft | 1 kts | 137° |
| 2026-05-04 12:24 | 37.55866 | 126.79995 | 57 ft | 1 kts | 138° |
| 2026-05-04 12:24 | 37.55865 | 126.79997 | 57 ft | 0 kts | 138° |
| 2026-05-04 12:26 | 37.55859 | 126.80005 | 67 ft | 2 kts | 136° |
| 2026-05-04 12:27 | 37.55840 | 126.80028 | 65 ft | 5 kts | 133° |
| 2026-05-04 12:27 | 37.55811 | 126.80068 | 63 ft | 7 kts | 136° |
| 2026-05-04 12:27 | 37.55767 | 126.80122 | 66 ft | 10 kts | 135° |
| 2026-05-04 12:27 | 37.55711 | 126.80192 | 60 ft | 13 kts | 135° |
| 2026-05-04 12:28 | 37.55646 | 126.80274 | 64 ft | 11 kts | 134° |
| 2026-05-04 12:28 | 37.55575 | 126.80306 | 65 ft | 13 kts | 212° |
| 2026-05-04 12:28 | 37.55528 | 126.80251 | 61 ft | 15 kts | 224° |
| 2026-05-04 12:28 | 37.55438 | 126.80186 | 60 ft | 16 kts | 162° |
| 2026-05-04 12:29 | 37.55348 | 126.80291 | 64 ft | 19 kts | 134° |
| 2026-05-04 12:29 | 37.55251 | 126.80414 | 61 ft | 19 kts | 139° |
| 2026-05-04 12:29 | 37.55112 | 126.80586 | 62 ft | 23 kts | 135° |
| 2026-05-04 12:29 | 37.55031 | 126.80682 | 62 ft | 25 kts | 137° |
| 2026-05-04 12:30 | 37.54930 | 126.80816 | 65 ft | 16 kts | 137° |
| 2026-05-04 12:30 | 37.54852 | 126.80791 | 57 ft | 13 kts | 221° |
| 2026-05-04 12:30 | 37.54812 | 126.80678 | 56 ft | 15 kts | 291° |
| 2026-05-04 12:30 | 37.54871 | 126.80601 | 57 ft | 0 kts | 313° |
| 2026-05-04 12:31 | 37.54872 | 126.80599 | 57 ft | 0 kts | 313° |
| 2026-05-04 12:31 | 37.54876 | 126.80594 | 56 ft | 0 kts | 314° |
| 2026-05-04 12:31 | 37.54900 | 126.80565 | 56 ft | 27 kts | 318° |
| 2026-05-04 12:32 | 37.55262 | 126.80110 | 58 ft | 116 kts | 316° |
| 2026-05-04 12:32 | 37.56749 | 126.77987 | 657 ft | 185 kts | 307° |
| 2026-05-04 12:32 | 37.57586 | 126.76765 | 1536 ft | 184 kts | 313° |
| 2026-05-04 12:33 | 37.58495 | 126.75589 | 2283 ft | 196 kts | 314° |
| 2026-05-04 12:33 | 37.59496 | 126.74317 | 2788 ft | 216 kts | 314° |
| 2026-05-04 12:33 | 37.60603 | 126.72901 | 3346 ft | 235 kts | 314° |
| 2026-05-04 12:33 | 37.61757 | 126.71394 | 4124 ft | 241 kts | 310° |
| 2026-05-04 12:34 | 37.62454 | 126.69528 | 4722 ft | 241 kts | 276° |
| 2026-05-04 12:34 | 37.62137 | 126.67403 | 4901 ft | 259 kts | 240° |
| 2026-05-04 12:34 | 37.61046 | 126.65536 | 5004 ft | 267 kts | 229° |
| 2026-05-04 12:34 | 37.59775 | 126.63826 | 5013 ft | 268 kts | 225° |
| 2026-05-04 12:35 | 37.58452 | 126.62165 | 5018 ft | 268 kts | 225° |
| 2026-05-04 12:35 | 37.57094 | 126.60557 | 5016 ft | 268 kts | 217° |
| 2026-05-04 12:35 | 37.55449 | 126.59461 | 5029 ft | 270 kts | 198° |
| 2026-05-04 12:35 | 37.53619 | 126.59042 | 5522 ft | 272 kts | 185° |
| 2026-05-04 12:36 | 37.51733 | 126.58805 | 6094 ft | 273 kts | 186° |
| 2026-05-04 12:36 | 37.49842 | 126.58545 | 6623 ft | 275 kts | 187° |
| 2026-05-04 12:36 | 37.47925 | 126.58274 | 7132 ft | 277 kts | 187° |
| 2026-05-04 12:36 | 37.46007 | 126.58005 | 7629 ft | 279 kts | 187° |
| 2026-05-04 12:37 | 37.44072 | 126.57737 | 8108 ft | 281 kts | 186° |
| 2026-05-04 12:37 | 37.42120 | 126.57470 | 8561 ft | 283 kts | 186° |
| 2026-05-04 12:37 | 37.40140 | 126.57421 | 9025 ft | 285 kts | 174° |
| 2026-05-04 12:37 | 37.38185 | 126.57879 | 9459 ft | 287 kts | 168° |
| 2026-05-04 12:38 | 37.36224 | 126.58419 | 9882 ft | 289 kts | 168° |
| 2026-05-04 12:38 | 37.34234 | 126.58962 | 10133 ft | 298 kts | 168° |
| 2026-05-04 12:38 | 37.32174 | 126.59521 | 10263 ft | 308 kts | 168° |
| 2026-05-04 12:38 | 37.30092 | 126.60145 | 10389 ft | 316 kts | 166° |
| 2026-05-04 12:39 | 37.27943 | 126.60848 | 10519 ft | 322 kts | 165° |
| 2026-05-04 12:39 | 37.25765 | 126.61586 | 10659 ft | 326 kts | 165° |
| 2026-05-04 12:39 | 37.23565 | 126.62332 | 10863 ft | 328 kts | 165° |
| 2026-05-04 12:39 | 37.21353 | 126.63078 | 11068 ft | 329 kts | 165° |
| 2026-05-04 12:40 | 37.19133 | 126.63821 | 11273 ft | 330 kts | 165° |
| 2026-05-04 12:40 | 37.16911 | 126.64559 | 11473 ft | 331 kts | 165° |
| 2026-05-04 12:40 | 37.14678 | 126.65295 | 11664 ft | 332 kts | 166° |
| 2026-05-04 12:40 | 37.12465 | 126.66021 | 11853 ft | 333 kts | 166° |
| 2026-05-04 12:41 | 37.10195 | 126.66766 | 12035 ft | 334 kts | 166° |
| 2026-05-04 12:41 | 37.07972 | 126.67495 | 12215 ft | 335 kts | 166° |
| 2026-05-04 12:41 | 37.05720 | 126.68234 | 12381 ft | 335 kts | 166° |
| 2026-05-04 12:41 | 37.03463 | 126.68973 | 12561 ft | 336 kts | 166° |
| 2026-05-04 12:42 | 37.01187 | 126.69715 | 12726 ft | 337 kts | 166° |
| 2026-05-04 12:42 | 36.98922 | 126.70457 | 12897 ft | 338 kts | 166° |
| 2026-05-04 12:42 | 36.96645 | 126.71206 | 13054 ft | 338 kts | 165° |
| 2026-05-04 12:42 | 36.94361 | 126.71958 | 13218 ft | 339 kts | 166° |
| 2026-05-04 12:43 | 36.92145 | 126.72685 | 13917 ft | 319 kts | 166° |
| 2026-05-04 12:43 | 36.90088 | 126.73413 | 14744 ft | 296 kts | 160° |
| 2026-05-04 12:43 | 36.88250 | 126.74342 | 15661 ft | 275 kts | 158° |
| 2026-05-04 12:43 | 36.86503 | 126.75243 | 16290 ft | 271 kts | 158° |
| 2026-05-04 12:44 | 36.84691 | 126.76167 | 16538 ft | 292 kts | 158° |
| 2026-05-04 12:44 | 36.82739 | 126.77158 | 16672 ft | 314 kts | 158° |
| 2026-05-04 12:44 | 36.80643 | 126.78219 | 16805 ft | 335 kts | 158° |
| 2026-05-04 12:44 | 36.78412 | 126.79352 | 16935 ft | 355 kts | 158° |
| 2026-05-04 12:45 | 36.76071 | 126.80545 | 17165 ft | 370 kts | 158° |
| 2026-05-04 12:45 | 36.73649 | 126.81719 | 17667 ft | 376 kts | 163° |
| 2026-05-04 12:45 | 36.71087 | 126.82443 | 18242 ft | 380 kts | 173° |